Time;durP1;ratioP1;P1;durP2;ratioP2;P2;SDS_P1;SDS_P2;PMS_P1;PMS_P2;Temp;Humidity;BMP_temperature;BMP_pressure;BME280_temperature;BME280_humidity;BME280_pressure;Samples;Min_cycle;Max_cycle;Signal;HPM_P1;HPM_P2
2021/11/19 00:00:00;;;;;;;;;;;22.70;76.70;;;;;;5096009;28;19908;-42
2021/11/19 00:02:25;;;;;;;;;;;22.70;76.70;;;;;;5095822;28;19912;-42
2021/11/19 00:04:51;;;;;;;;;;;22.70;76.70;;;;;;5095819;28;19923;-43
2021/11/19 00:07:17;;;;;;;;;;;22.70;76.60;;;;;;5095747;28;19991;-42
2021/11/19 00:09:43;;;;;;;;;;;22.70;76.70;;;;;;5095446;28;20264;-41
2021/11/19 00:12:11;;;;;;;;;;;22.60;76.50;;;;;;5095756;28;19908;-42
2021/11/19 00:14:37;;;;;;;;;;;22.60;76.50;;;;;;5095659;28;19951;-42
2021/11/19 00:17:05;;;;;;;;;;;22.60;76.50;;;;;;5095507;28;19916;-41
2021/11/19 00:19:31;;;;;;;;;;;22.60;76.50;;;;;;5095418;28;19908;-41
2021/11/19 00:21:57;;;;;;;;;;;22.60;76.50;;;;;;5095476;28;19908;-41
2021/11/19 00:24:23;;;;;;;;;;;22.60;76.50;;;;;;5094997;28;20390;-41
2021/11/19 00:26:49;;;;;;;;;;;22.60;76.50;;;;;;5095386;28;19909;-42
2021/11/19 00:29:15;;;;;;;;;;;22.60;76.50;;;;;;5095237;28;19919;-43
2021/11/19 00:31:41;;;;;;;;;;;22.60;76.40;;;;;;5095224;28;19908;-42
2021/11/19 00:34:06;;;;;;;;;;;22.60;76.40;;;;;;5094944;28;20015;-41
2021/11/19 00:36:33;;;;;;;;;;;22.50;76.30;;;;;;5095353;28;20388;-41
2021/11/19 00:38:59;;;;;;;;;;;22.50;76.30;;;;;;5094727;28;19909;-42
2021/11/19 00:41:25;;;;;;;;;;;22.50;76.30;;;;;;5094863;28;20296;-41
2021/11/19 00:43:51;;;;;;;;;;;22.50;76.30;;;;;;5094820;28;19916;-41
2021/11/19 00:46:16;;;;;;;;;;;22.50;76.30;;;;;;5094914;28;19912;-41
2021/11/19 00:48:42;;;;;;;;;;;22.50;76.30;;;;;;5094845;28;19914;-42
2021/11/19 00:51:19;;;;;;;;;;;22.50;76.30;;;;;;5094862;28;19960;-41
2021/11/19 00:53:46;;;;;;;;;;;22.50;76.30;;;;;;5094193;28;20395;-41
2021/11/19 00:56:13;;;;;;;;;;;22.50;76.30;;;;;;5094733;28;19923;-42
2021/11/19 00:58:39;;;;;;;;;;;22.50;76.20;;;;;;5094752;28;19908;-41
2021/11/19 01:01:07;;;;;;;;;;;22.50;76.20;;;;;;5094600;28;19919;-42
2021/11/19 01:03:33;;;;;;;;;;;22.40;76.20;;;;;;5094676;28;19967;-43
2021/11/19 01:05:59;;;;;;;;;;;22.40;76.20;;;;;;5094576;28;19995;-41
2021/11/19 01:08:25;;;;;;;;;;;22.40;76.10;;;;;;5094243;28;19998;-41
2021/11/19 01:10:52;;;;;;;;;;;22.40;76.10;;;;;;5094651;28;19908;-41
2021/11/19 01:13:18;;;;;;;;;;;22.40;76.10;;;;;;5094368;28;19951;-42
2021/11/19 01:15:48;;;;;;;;;;;22.40;76.10;;;;;;5094466;28;19912;-42
2021/11/19 01:18:28;;;;;;;;;;;22.40;76.10;;;;;;5094465;28;19908;-41
2021/11/19 01:20:53;;;;;;;;;;;22.40;76.10;;;;;;5093812;28;19908;-42
2021/11/19 01:23:21;;;;;;;;;;;22.40;76.00;;;;;;5094183;28;19966;-43
2021/11/19 01:25:49;;;;;;;;;;;22.40;76.00;;;;;;5094226;28;20003;-41
2021/11/19 01:28:15;;;;;;;;;;;22.30;75.90;;;;;;5094164;28;19948;-41
2021/11/19 01:30:42;;;;;;;;;;;22.30;75.90;;;;;;5094075;28;19908;-44
2021/11/19 01:33:08;;;;;;;;;;;22.30;75.90;;;;;;5094155;28;19908;-41
2021/11/19 01:35:34;;;;;;;;;;;22.30;75.90;;;;;;5093575;28;19918;-41
2021/11/19 01:38:00;;;;;;;;;;;22.30;75.90;;;;;;5094136;28;19908;-42
2021/11/19 01:40:27;;;;;;;;;;;22.30;75.90;;;;;;5093971;28;19961;-41
2021/11/19 01:42:56;;;;;;;;;;;22.30;75.90;;;;;;5093627;28;19926;-41
2021/11/19 01:45:24;;;;;;;;;;;22.30;75.90;;;;;;5075779;28;19916;-42
2021/11/19 01:47:51;;;;;;;;;;;22.30;76.00;;;;;;5093329;28;19962;-42
2021/11/19 01:50:22;;;;;;;;;;;22.30;76.00;;;;;;5093489;28;19969;-42
2021/11/19 01:52:50;;;;;;;;;;;22.30;76.00;;;;;;5093862;28;19944;-42
2021/11/19 01:55:19;;;;;;;;;;;22.30;76.00;;;;;;5093792;28;19995;-41
2021/11/19 01:57:53;;;;;;;;;;;22.30;75.90;;;;;;5093843;28;20356;-41
2021/11/19 02:00:22;;;;;;;;;;;22.30;75.90;;;;;;5093711;28;19935;-41
2021/11/19 02:02:49;;;;;;;;;;;22.30;75.90;;;;;;5093832;28;19908;-42
2021/11/19 02:05:15;;;;;;;;;;;22.30;75.90;;;;;;5093231;28;19920;-41
2021/11/19 02:07:45;;;;;;;;;;;22.20;75.80;;;;;;5093771;28;19908;-44
2021/11/19 02:10:10;;;;;;;;;;;22.30;75.90;;;;;;5093850;28;19908;-42
2021/11/19 02:12:54;;;;;;;;;;;22.20;75.80;;;;;;5093700;28;20338;-42
2021/11/19 02:15:28;;;;;;;;;;;22.20;75.80;;;;;;5093590;28;19916;-42
2021/11/19 02:17:57;;;;;;;;;;;22.20;75.70;;;;;;5093731;28;20368;-41
2021/11/19 02:20:35;;;;;;;;;;;22.20;75.70;;;;;;5093207;28;19998;-42
2021/11/19 02:23:04;;;;;;;;;;;22.20;75.70;;;;;;5093768;28;19908;-42
2021/11/19 02:25:32;;;;;;;;;;;22.20;75.70;;;;;;5093527;28;19970;-42
2021/11/19 02:28:00;;;;;;;;;;;22.20;75.70;;;;;;5093566;28;19994;-41
2021/11/19 02:30:28;;;;;;;;;;;22.20;75.70;;;;;;5093515;28;19954;-41
2021/11/19 02:33:08;;;;;;;;;;;22.20;75.70;;;;;;5093352;28;19912;-41
2021/11/19 02:35:36;;;;;;;;;;;22.20;75.60;;;;;;5093261;28;19909;-44
2021/11/19 02:38:04;;;;;;;;;;;22.10;75.60;;;;;;5093659;28;19908;-41
2021/11/19 02:40:32;;;;;;;;;;;22.10;75.50;;;;;;5093621;28;19966;-41
2021/11/19 02:42:59;;;;;;;;;;;22.10;75.50;;;;;;5093206;28;20412;-41
2021/11/19 02:45:27;;;;;;;;;;;22.10;75.50;;;;;;5093204;28;19920;-42
2021/11/19 02:47:52;;;;;;;;;;;22.10;75.50;;;;;;5093153;28;19995;-41
2021/11/19 02:50:19;;;;;;;;;;;22.10;75.50;;;;;;5093502;28;19951;-42
2021/11/19 02:52:46;;;;;;;;;;;22.10;75.50;;;;;;5093270;28;19912;-41
2021/11/19 02:55:13;;;;;;;;;;;22.10;75.50;;;;;;5093262;28;19908;-42
2021/11/19 02:57:39;;;;;;;;;;;22.10;75.50;;;;;;5094376;28;19908;-41
2021/11/19 03:00:07;;;;;;;;;;;22.10;75.50;;;;;;5097045;28;19908;-41
2021/11/19 03:02:33;;;;;;;;;;;22.10;75.50;;;;;;5096560;28;19956;-46
2021/11/19 03:05:01;;;;;;;;;;;22.10;75.50;;;;;;5096907;28;20379;-42
2021/11/19 03:07:26;;;;;;;;;;;22.00;75.40;;;;;;5096825;28;19912;-42
2021/11/19 03:09:58;;;;;;;;;;;22.00;75.40;;;;;;5096852;28;19915;-42
2021/11/19 03:12:25;;;;;;;;;;;22.10;75.40;;;;;;5096840;28;19947;-44
2021/11/19 03:14:53;;;;;;;;;;;22.00;75.30;;;;;;5096774;28;20374;-45
2021/11/19 03:17:19;;;;;;;;;;;22.00;75.30;;;;;;5096236;28;19916;-42
2021/11/19 03:19:45;;;;;;;;;;;22.00;75.30;;;;;;5096675;28;19966;-43
2021/11/19 03:22:11;;;;;;;;;;;22.00;75.30;;;;;;5096585;28;19908;-42
2021/11/19 03:24:37;;;;;;;;;;;22.00;75.30;;;;;;5096584;28;20257;-42
2021/11/19 03:27:03;;;;;;;;;;;22.00;75.30;;;;;;5096636;28;20405;-42
2021/11/19 03:29:28;;;;;;;;;;;21.90;75.20;;;;;;5096329;28;19915;-43
2021/11/19 03:31:54;;;;;;;;;;;22.00;75.30;;;;;;5096128;28;19957;-41
2021/11/19 03:34:20;;;;;;;;;;;22.00;75.30;;;;;;5096489;28;19909;-43
2021/11/19 03:36:48;;;;;;;;;;;22.00;75.20;;;;;;5096287;28;19908;-42
2021/11/19 03:39:15;;;;;;;;;;;22.00;75.20;;;;;;5096264;28;19908;-43
2021/11/19 03:41:41;;;;;;;;;;;22.00;75.20;;;;;;5095978;28;19967;-42
2021/11/19 03:44:15;;;;;;;;;;;21.90;75.20;;;;;;5077975;28;19920;-43
2021/11/19 03:46:44;;;;;;;;;;;21.90;75.10;;;;;;5095828;28;19912;-44
2021/11/19 03:49:10;;;;;;;;;;;21.90;75.10;;;;;;5096162;28;20330;-41
2021/11/19 03:51:38;;;;;;;;;;;21.90;75.10;;;;;;5096104;28;19951;-42
2021/11/19 03:54:05;;;;;;;;;;;21.90;75.10;;;;;;5096155;28;19961;-42
2021/11/19 03:56:30;;;;;;;;;;;21.90;75.10;;;;;;5096094;28;20367;-42
2021/11/19 03:58:56;;;;;;;;;;;21.90;75.10;;;;;;5095969;28;19912;-42
2021/11/19 04:01:24;;;;;;;;;;;21.90;75.10;;;;;;5095549;28;19908;-45
2021/11/19 04:03:50;;;;;;;;;;;21.90;75.10;;;;;;5095664;28;20008;-42
2021/11/19 04:06:17;;;;;;;;;;;21.90;75.10;;;;;;5096020;28;20348;-44
2021/11/19 04:08:42;;;;;;;;;;;21.90;75.10;;;;;;5095570;28;19908;-44
2021/11/19 04:11:09;;;;;;;;;;;21.90;75.10;;;;;;5095439;28;19908;-42
2021/11/19 04:13:35;;;;;;;;;;;21.80;75.00;;;;;;5095677;28;19912;-41
2021/11/19 04:16:02;;;;;;;;;;;21.90;75.10;;;;;;5095176;28;19908;-47
2021/11/19 04:18:28;;;;;;;;;;;21.90;75.10;;;;;;5096000;28;19908;-42
2021/11/19 04:20:54;;;;;;;;;;;21.80;74.90;;;;;;5095546;28;19915;-43
2021/11/19 04:23:20;;;;;;;;;;;21.80;74.90;;;;;;5095412;28;20364;-42
2021/11/19 04:25:46;;;;;;;;;;;21.80;74.90;;;;;;5095582;28;19908;-42
2021/11/19 04:28:12;;;;;;;;;;;21.80;74.90;;;;;;5095423;28;20364;-44
2021/11/19 04:30:40;;;;;;;;;;;21.80;74.90;;;;;;5094875;28;19982;-41
2021/11/19 04:33:06;;;;;;;;;;;21.80;75.00;;;;;;5095119;28;19916;-43
2021/11/19 04:35:32;;;;;;;;;;;21.80;75.00;;;;;;5095219;28;19909;-46
2021/11/19 04:37:58;;;;;;;;;;;21.80;75.00;;;;;;5095463;28;19908;-44
2021/11/19 04:40:23;;;;;;;;;;;21.80;75.00;;;;;;5095302;28;19915;-42
2021/11/19 04:42:49;;;;;;;;;;;21.80;74.90;;;;;;5094943;28;19927;-42
2021/11/19 04:45:17;;;;;;;;;;;21.80;74.90;;;;;;5094623;28;19920;-44
2021/11/19 04:47:42;;;;;;;;;;;21.80;74.90;;;;;;5094875;28;19988;-41
2021/11/19 04:50:10;;;;;;;;;;;21.80;74.90;;;;;;5095026;28;19954;-42
2021/11/19 04:52:35;;;;;;;;;;;21.70;74.80;;;;;;5094830;28;19915;-44
2021/11/19 04:55:01;;;;;;;;;;;21.80;74.90;;;;;;5094945;28;19908;-42
2021/11/19 04:57:26;;;;;;;;;;;21.80;74.90;;;;;;5094747;28;19908;-44
2021/11/19 04:59:52;;;;;;;;;;;21.70;74.80;;;;;;5076211;28;20391;-42
2021/11/19 05:02:20;;;;;;;;;;;21.70;74.80;;;;;;5094761;28;20390;-42
2021/11/19 05:04:46;;;;;;;;;;;21.80;74.80;;;;;;5094556;28;19922;-42
2021/11/19 05:07:11;;;;;;;;;;;21.70;74.70;;;;;;5094565;28;19994;-43
2021/11/19 05:09:37;;;;;;;;;;;21.70;74.70;;;;;;5094555;28;19915;-42
2021/11/19 05:12:08;;;;;;;;;;;21.70;74.70;;;;;;5094518;28;19908;-43
2021/11/19 05:14:34;;;;;;;;;;;21.70;74.70;;;;;;5093942;28;19908;-43
2021/11/19 05:17:03;;;;;;;;;;;21.70;74.70;;;;;;5094430;28;19908;-42
2021/11/19 05:19:29;;;;;;;;;;;21.70;74.70;;;;;;5094291;28;19912;-41
2021/11/19 05:21:55;;;;;;;;;;;21.70;74.70;;;;;;5093670;28;19913;-42
2021/11/19 05:24:20;;;;;;;;;;;21.60;74.60;;;;;;5094437;28;19916;-42
2021/11/19 05:26:46;;;;;;;;;;;21.60;74.60;;;;;;5094290;28;19987;-42
2021/11/19 05:29:12;;;;;;;;;;;21.70;74.60;;;;;;5093744;28;19908;-42
2021/11/19 05:31:37;;;;;;;;;;;21.60;74.60;;;;;;5094358;28;20415;-41
2021/11/19 05:34:03;;;;;;;;;;;21.60;74.60;;;;;;5094152;28;19915;-42
2021/11/19 05:36:29;;;;;;;;;;;21.60;74.60;;;;;;5094192;28;19914;-41
2021/11/19 05:38:54;;;;;;;;;;;21.60;74.60;;;;;;5094073;28;19919;-43
2021/11/19 05:41:21;;;;;;;;;;;21.60;74.60;;;;;;5093821;28;20272;-44
2021/11/19 05:43:49;;;;;;;;;;;21.60;74.50;;;;;;5093570;28;19920;-41
2021/11/19 05:46:18;;;;;;;;;;;21.60;74.50;;;;;;5093930;28;19912;-41
2021/11/19 05:48:44;;;;;;;;;;;21.60;74.50;;;;;;5094099;28;19912;-41
2021/11/19 05:51:10;;;;;;;;;;;21.60;74.50;;;;;;5093837;28;19915;-41
2021/11/19 05:53:35;;;;;;;;;;;21.60;74.40;;;;;;5094055;28;20007;-43
2021/11/19 05:56:01;;;;;;;;;;;21.60;74.40;;;;;;5093852;28;19968;-41
2021/11/19 05:58:26;;;;;;;;;;;21.60;74.40;;;;;;5093424;28;20003;-41
2021/11/19 06:00:57;;;;;;;;;;;21.60;74.40;;;;;;5093712;28;19916;-43
2021/11/19 06:03:23;;;;;;;;;;;21.60;74.40;;;;;;5093606;28;20297;-43
2021/11/19 06:05:48;;;;;;;;;;;21.60;74.50;;;;;;5093665;28;19954;-43
2021/11/19 06:08:14;;;;;;;;;;;21.60;74.40;;;;;;5093871;28;20053;-44
2021/11/19 06:10:53;;;;;;;;;;;21.60;74.40;;;;;;5093811;28;19908;-42
2021/11/19 06:13:20;;;;;;;;;;;21.60;74.30;;;;;;5093824;28;19915;-42
2021/11/19 06:15:47;;;;;;;;;;;21.60;74.30;;;;;;5093548;28;19908;-41
2021/11/19 06:18:14;;;;;;;;;;;21.60;74.20;;;;;;5093577;28;19908;-42
2021/11/19 06:20:42;;;;;;;;;;;21.60;74.20;;;;;;5093606;28;19915;-44
2021/11/19 06:23:09;;;;;;;;;;;21.60;74.10;;;;;;5093570;28;19915;-46
2021/11/19 06:25:37;;;;;;;;;;;21.60;74.10;;;;;;5092885;28;19920;-42
2021/11/19 06:28:03;;;;;;;;;;;21.70;74.10;;;;;;5093398;28;19912;-41
2021/11/19 06:30:29;;;;;;;;;;;21.70;74.10;;;;;;5093555;28;20284;-42
2021/11/19 06:32:55;;;;;;;;;;;21.80;74.10;;;;;;5095029;28;20003;-41
2021/11/19 06:35:21;;;;;;;;;;;21.80;74.20;;;;;;5097337;28;20376;-42
2021/11/19 06:37:47;;;;;;;;;;;21.80;74.10;;;;;;5079165;28;19916;-44
2021/11/19 06:40:15;;;;;;;;;;;21.90;74.10;;;;;;5073950;28;19916;-44
2021/11/19 06:42:40;;;;;;;;;;;21.90;74.10;;;;;;5074026;28;19931;-42
2021/11/19 06:45:06;;;;;;;;;;;21.90;74.10;;;;;;5074287;28;19920;-44
2021/11/19 06:47:31;;;;;;;;;;;21.90;74.10;;;;;;5074176;28;19909;-46
2021/11/19 06:49:57;;;;;;;;;;;21.90;74.20;;;;;;5073892;28;20000;-44
2021/11/19 06:52:23;;;;;;;;;;;22.00;74.30;;;;;;5074049;28;19962;-43
2021/11/19 06:54:48;;;;;;;;;;;22.00;74.30;;;;;;5073552;28;20365;-44
2021/11/19 06:57:13;;;;;;;;;;;22.00;74.30;;;;;;5073789;28;19908;-42
2021/11/19 06:59:40;;;;;;;;;;;22.00;74.30;;;;;;5089640;28;19920;-42
2021/11/19 07:02:07;;;;;;;;;;;22.00;74.30;;;;;;5073686;28;19913;-44
2021/11/19 07:04:32;;;;;;;;;;;22.10;74.40;;;;;;5073748;28;19959;-45
2021/11/19 07:06:58;;;;;;;;;;;22.10;74.30;;;;;;5073642;28;19951;-43
2021/11/19 07:09:23;;;;;;;;;;;22.10;74.40;;;;;;5073337;28;20284;-43
2021/11/19 07:11:49;;;;;;;;;;;22.10;74.30;;;;;;5073351;28;19915;-43
2021/11/19 07:14:15;;;;;;;;;;;22.10;74.30;;;;;;5073539;28;19916;-42
2021/11/19 07:16:40;;;;;;;;;;;22.10;74.30;;;;;;5073535;28;19919;-43
2021/11/19 07:19:07;;;;;;;;;;;22.20;74.40;;;;;;5073426;28;20391;-42
2021/11/19 07:21:33;;;;;;;;;;;22.20;74.40;;;;;;5073531;28;19919;-42
2021/11/19 07:24:00;;;;;;;;;;;22.10;74.30;;;;;;5072793;28;19974;-42
2021/11/19 07:26:27;;;;;;;;;;;22.20;74.40;;;;;;5073605;28;20276;-42
2021/11/19 07:28:52;;;;;;;;;;;22.10;74.30;;;;;;5073474;28;19913;-42
2021/11/19 07:31:18;;;;;;;;;;;22.20;74.40;;;;;;5073422;28;19908;-43
2021/11/19 07:33:45;;;;;;;;;;;22.20;74.40;;;;;;5073351;28;19916;-43
2021/11/19 07:36:11;;;;;;;;;;;22.20;74.30;;;;;;5073094;28;20007;-42
2021/11/19 07:38:37;;;;;;;;;;;22.20;74.30;;;;;;5072860;28;19913;-42
2021/11/19 07:41:03;;;;;;;;;;;22.20;74.30;;;;;;5073326;28;19915;-43
2021/11/19 07:43:30;;;;;;;;;;;22.20;74.30;;;;;;5072864;28;19924;-43
2021/11/19 07:45:56;;;;;;;;;;;22.20;74.30;;;;;;5072555;28;19928;-45
2021/11/19 07:48:23;;;;;;;;;;;22.20;74.30;;;;;;5073009;28;19919;-43
2021/11/19 07:50:50;;;;;;;;;;;22.30;74.30;;;;;;5080891;28;19969;-43
2021/11/19 07:53:17;;;;;;;;;;;22.30;74.30;;;;;;5092074;28;19912;-45
2021/11/19 07:55:45;;;;;;;;;;;22.30;74.30;;;;;;5093115;28;19912;-43
2021/11/19 07:58:12;;;;;;;;;;;22.30;74.30;;;;;;5092905;28;20322;-45
2021/11/19 08:00:39;;;;;;;;;;;22.30;74.30;;;;;;5092809;28;19912;-45
2021/11/19 08:03:05;;;;;;;;;;;22.30;74.40;;;;;;5092930;28;19916;-45
2021/11/19 08:05:30;;;;;;;;;;;22.30;74.30;;;;;;5076238;28;19920;-48
2021/11/19 08:07:56;;;;;;;;;;;22.30;74.30;;;;;;5094614;28;19916;-43
2021/11/19 08:10:21;;;;;;;;;;;22.30;74.30;;;;;;5094032;28;19912;-43
2021/11/19 08:12:47;;;;;;;;;;;22.30;74.30;;;;;;5095756;28;19908;-42
2021/11/19 08:15:15;;;;;;;;;;;22.30;74.30;;;;;;5095538;28;19908;-43
2021/11/19 08:17:43;;;;;;;;;;;22.30;74.30;;;;;;5095546;28;19916;-46
2021/11/19 08:20:10;;;;;;;;;;;22.30;74.30;;;;;;5095404;28;20399;-42
2021/11/19 08:22:36;;;;;;;;;;;22.30;74.30;;;;;;5094904;28;19972;-43
2021/11/19 08:25:03;;;;;;;;;;;22.30;74.20;;;;;;5095462;28;20364;-42
2021/11/19 08:27:31;;;;;;;;;;;22.30;74.30;;;;;;5095137;28;20281;-43
2021/11/19 08:29:57;;;;;;;;;;;22.30;74.20;;;;;;5095489;28;19950;-43
2021/11/19 08:32:24;;;;;;;;;;;22.30;74.20;;;;;;5095060;28;19965;-43
2021/11/19 08:34:50;;;;;;;;;;;22.30;74.20;;;;;;5095097;28;19908;-43
2021/11/19 08:37:16;;;;;;;;;;;22.30;74.10;;;;;;5092385;28;19916;-43
2021/11/19 08:39:42;;;;;;;;;;;22.30;74.20;;;;;;5094967;28;20050;-44
2021/11/19 08:42:09;;;;;;;;;;;22.30;74.20;;;;;;5094535;28;19952;-42
2021/11/19 08:44:39;;;;;;;;;;;22.30;74.20;;;;;;5094854;28;19927;-42
2021/11/19 08:47:04;;;;;;;;;;;22.30;74.10;;;;;;5094882;28;20435;-42
2021/11/19 08:49:33;;;;;;;;;;;22.30;74.10;;;;;;5095006;28;20008;-43
2021/11/19 08:51:58;;;;;;;;;;;22.30;74.10;;;;;;5094437;28;20376;-43
2021/11/19 08:54:24;;;;;;;;;;;22.30;74.10;;;;;;5076371;28;19947;-44
2021/11/19 08:56:51;;;;;;;;;;;22.30;74.10;;;;;;5094545;28;19916;-43
2021/11/19 08:59:18;;;;;;;;;;;22.30;74.10;;;;;;5094613;28;19915;-47
2021/11/19 09:01:45;;;;;;;;;;;22.30;74.00;;;;;;5094569;28;19908;-42
2021/11/19 09:04:12;;;;;;;;;;;22.40;74.10;;;;;;5094383;28;20283;-42
2021/11/19 09:06:37;;;;;;;;;;;22.30;74.10;;;;;;5093951;28;19916;-44
2021/11/19 09:09:04;;;;;;;;;;;22.40;74.20;;;;;;5094582;28;19908;-44
2021/11/19 09:11:29;;;;;;;;;;;22.40;74.30;;;;;;5094509;28;19915;-42
2021/11/19 09:13:56;;;;;;;;;;;22.40;74.30;;;;;;5109950;28;20360;-42
2021/11/19 09:16:23;;;;;;;;;;;22.40;74.30;;;;;;5114578;28;19918;-42
2021/11/19 09:19:07;;;;;;;;;;;22.40;74.30;;;;;;5114606;28;19908;-42
2021/11/19 09:21:45;;;;;;;;;;;22.30;74.30;;;;;;5114065;28;19951;-44
2021/11/19 09:24:19;;;;;;;;;;;22.30;74.20;;;;;;5114449;28;20014;-43
2021/11/19 09:26:50;;;;;;;;;;;22.40;74.20;;;;;;5114635;28;20002;-42
2021/11/19 09:29:27;;;;;;;;;;;22.40;74.10;;;;;;5114275;28;19918;-42
2021/11/19 09:31:53;;;;;;;;;;;22.40;74.10;;;;;;5115001;28;19931;-46
2021/11/19 09:34:19;;;;;;;;;;;22.40;74.00;;;;;;5114026;28;19955;-45
2021/11/19 09:36:45;;;;;;;;;;;22.40;74.00;;;;;;5114213;28;19967;-42
2021/11/19 09:39:12;;;;;;;;;;;22.40;74.00;;;;;;5114232;28;20341;-43
2021/11/19 09:41:45;;;;;;;;;;;22.40;74.00;;;;;;5114129;28;19907;-42
2021/11/19 09:44:23;;;;;;;;;;;22.40;74.00;;;;;;5113928;28;20014;-43
2021/11/19 09:46:57;;;;;;;;;;;22.30;74.10;;;;;;5114245;28;19915;-43
2021/11/19 09:49:41;;;;;;;;;;;22.30;74.20;;;;;;5113611;28;20363;-43
2021/11/19 09:52:13;;;;;;;;;;;22.30;74.20;;;;;;5114036;28;19908;-42
2021/11/19 09:54:57;;;;;;;;;;;22.30;74.20;;;;;;5114417;28;20272;-42
2021/11/19 09:57:34;;;;;;;;;;;22.30;74.10;;;;;;5114226;28;19995;-43
2021/11/19 10:00:22;;;;;;;;;;;22.30;74.10;;;;;;5114130;28;19957;-42
2021/11/19 10:03:06;;;;;;;;;;;22.30;74.00;;;;;;5011379;28;19914;-43
2021/11/19 10:05:36;;;;;;;;;;;22.30;74.00;;;;;;5011752;28;20362;-43
2021/11/19 10:08:20;;;;;;;;;;;22.30;73.90;;;;;;4998594;28;20449;-42
2021/11/19 10:11:04;;;;;;;;;;;22.30;73.90;;;;;;4991683;28;19910;-42
2021/11/19 10:13:47;;;;;;;;;;;22.30;73.90;;;;;;4991885;28;20001;-42
2021/11/19 10:16:19;;;;;;;;;;;22.40;74.50;;;;;;4992281;28;19917;-42
2021/11/19 10:18:56;;;;;;;;;;;22.40;73.80;;;;;;4991676;28;20275;-43
2021/11/19 10:21:27;;;;;;;;;;;22.40;73.80;;;;;;4991940;28;20446;-42
2021/11/19 10:23:56;;;;;;;;;;;22.40;73.80;;;;;;4975533;28;20036;-42
2021/11/19 10:26:23;;;;;;;;;;;22.40;73.70;;;;;;4991874;28;19909;-43
2021/11/19 10:28:54;;;;;;;;;;;22.40;73.70;;;;;;4991889;28;19949;-44
2021/11/19 10:31:22;;;;;;;;;;;22.40;73.70;;;;;;4991868;28;19937;-43
2021/11/19 10:34:06;;;;;;;;;;;22.40;73.70;;;;;;4991418;28;20416;-42
2021/11/19 10:36:50;;;;;;;;;;;22.40;73.70;;;;;;4991712;28;19913;-42
2021/11/19 10:39:16;;;;;;;;;;;22.40;73.60;;;;;;5020283;28;19914;-42
2021/11/19 10:41:41;;;;;;;;;;;22.40;73.60;;;;;;5093145;28;19919;-42
2021/11/19 10:44:25;;;;;;;;;;;22.40;73.60;;;;;;5093354;28;20413;-42
2021/11/19 10:47:10;;;;;;;;;;;22.40;73.60;;;;;;5092670;28;19912;-44
2021/11/19 10:49:55;;;;;;;;;;;22.40;73.60;;;;;;5093218;28;19912;-45
2021/11/19 10:52:20;;;;;;;;;;;22.40;73.60;;;;;;5108951;28;19954;-45
2021/11/19 10:55:02;;;;;;;;;;;22.40;73.70;;;;;;5113587;28;20330;-47
2021/11/19 10:57:53;;;;;;;;;;;22.40;73.70;;;;;;5113624;28;19912;-45
2021/11/19 11:00:37;;;;;;;;;;;22.40;73.60;;;;;;5095459;28;19908;-43
2021/11/19 11:03:10;;;;;;;;;;;22.40;73.60;;;;;;5112906;28;20367;-43
2021/11/19 11:05:38;;;;;;;;;;;22.50;73.70;;;;;;5113550;28;19919;-44
2021/11/19 11:08:10;;;;;;;;;;;22.50;73.70;;;;;;5113137;28;19960;-43
2021/11/19 11:10:41;;;;;;;;;;;22.50;73.70;;;;;;5113580;28;20363;-44
2021/11/19 11:13:39;;;;;;;;;;;22.50;73.60;;;;;;5113554;28;20336;-44
2021/11/19 11:16:24;;;;;;;;;;;22.50;73.60;;;;;;5056933;28;19911;-45
2021/11/19 11:18:55;;;;;;;;;;;22.60;73.70;;;;;;5113509;28;19915;-47
2021/11/19 11:21:29;;;;;;;;;;;22.60;73.70;;;;;;5116894;28;19930;-43
2021/11/19 11:24:18;;;;;;;;;;;22.60;73.70;;;;;;5116865;28;20040;-43
2021/11/19 11:26:46;;;;;;;;;;;22.60;73.70;;;;;;5103149;28;19912;-42
2021/11/19 11:29:18;;;;;;;;;;;22.60;73.70;;;;;;5116743;28;19908;-44
2021/11/19 11:31:46;;;;;;;;;;;22.60;73.70;;;;;;5116439;28;19908;-46
2021/11/19 11:34:34;;;;;;;;;;;22.60;73.80;;;;;;5110981;28;19908;-46
2021/11/19 11:37:02;;;;;;;;;;;22.60;73.80;;;;;;5093486;28;19916;-46
2021/11/19 11:39:45;;;;;;;;;;;22.60;73.70;;;;;;5093540;28;19912;-44
2021/11/19 11:42:14;;;;;;;;;;;22.60;73.70;;;;;;5093428;28;19920;-45
2021/11/19 11:44:45;;;;;;;;;;;22.60;73.70;;;;;;5074943;28;19920;-44
2021/11/19 11:47:18;;;;;;;;;;;22.60;73.70;;;;;;5093206;28;20245;-44
2021/11/19 11:49:45;;;;;;;;;;;22.60;73.70;;;;;;5093279;28;20406;-45
2021/11/19 11:52:14;;;;;;;;;;;22.70;73.70;;;;;;5093182;28;19908;-46
2021/11/19 11:54:57;;;;;;;;;;;22.70;73.80;;;;;;5093239;28;19915;-49
2021/11/19 11:57:28;;;;;;;;;;;22.70;73.80;;;;;;5092927;28;19919;-48
2021/11/19 12:00:00;;;;;;;;;;;22.60;73.70;;;;;;5092628;28;19931;-49
2021/11/19 12:02:44;;;;;;;;;;;22.70;73.70;;;;;;5093276;28;19916;-46
2021/11/19 12:05:23;;;;;;;;;;;22.60;73.60;;;;;;5092972;28;19922;-47
2021/11/19 12:08:08;;;;;;;;;;;22.70;73.60;;;;;;5092988;28;20257;-43
2021/11/19 12:10:52;;;;;;;;;;;22.70;73.60;;;;;;5092843;28;20440;-44
2021/11/19 12:13:25;;;;;;;;;;;22.70;73.60;;;;;;5092709;28;19912;-42
2021/11/19 12:16:09;;;;;;;;;;;22.70;73.60;;;;;;5092855;28;19990;-45
2021/11/19 12:18:41;;;;;;;;;;;22.70;73.60;;;;;;5092802;28;19914;-43
2021/11/19 12:21:07;;;;;;;;;;;22.70;73.60;;;;;;5092761;28;20002;-44
2021/11/19 12:23:33;;;;;;;;;;;22.70;73.50;;;;;;5075671;28;20396;-43
2021/11/19 12:26:07;;;;;;;;;;;22.70;73.50;;;;;;5091500;28;20011;-43
2021/11/19 12:28:40;;;;;;;;;;;22.70;73.50;;;;;;5093259;28;20365;-46
2021/11/19 12:31:06;;;;;;;;;;;22.70;73.50;;;;;;5095034;28;19912;-43
2021/11/19 12:33:36;;;;;;;;;;;22.70;73.50;;;;;;5094915;28;19953;-44
2021/11/19 12:36:04;;;;;;;;;;;22.70;73.50;;;;;;5095445;28;20384;-43
2021/11/19 12:38:32;;;;;;;;;;;22.70;73.50;;;;;;5095288;28;19908;-42
2021/11/19 12:41:30;;;;;;;;;;;22.60;73.40;;;;;;5095247;28;19908;-45
2021/11/19 12:44:13;;;;;;;;;;;22.60;73.40;;;;;;5060313;28;19924;-42
2021/11/19 12:46:42;;;;;;;;;;;22.70;73.40;;;;;;5095072;28;19915;-43
2021/11/19 12:49:10;;;;;;;;;;;22.60;73.30;;;;;;5095064;28;19908;-48
